Medford, OR (97501)

18:25 PST le 05 Mars 2015 (GMT -0800)
Southwest Medford (CW2551) | Change Station
CLOSE
Current Station
Stations météorologiques personnelles
Location: Medford, OR
Altitude: 1472 ft
Stations météo à proximité

Alt. 1472 ft 42.31 °N, 122.90 °W | Updated 3 seconds ago

Ciel dégagé
Ciel dégagé
51.0 ° F
Paraît 51.0 ° F
N
2.3
Vent Variable Vent de Sud
Gusts 2.3 mph

Aujourd'hui
Haut(e) -- | Bas -- ° F
--% Risque de précip.
Hier
Haut(e) -- | Bas -- ° F
Precip. -- pouce
6:40 AM 6:06 PM
Pleine lune, 100% visible
Pression 30.29 pouce
Visibilité 10.0 Miles terrestres
Nuages Ciel dégagé
Point de rosée 35 ° F
Humidité 55%
Précipitations pouce
Profondeur de la couche neigeuse Non disponible.
UV 0.0 sur 12
Pollen 4.90 sur 12
Qualité de l'air Non disponible.
Flu Activity Non disponible.
METAR KMFR 060153Z 21003KT 10SM CLR 18/M02 A3028 RMK AO2 SLP255 T01831022

More Conditions Fewer Conditions

Pression 30.29 pouce
Visibilité 10.0 Miles terrestres
Nuages Ciel dégagé
Point de rosée 35 ° F
Humidité 55%
Précipitations pouce
Profondeur de la couche neigeuse Non disponible.
UV 0.0 sur 12
Pollen 4.90 sur 12
Qualité de l'air Non disponible.
Flu Activity Non disponible.
METAR KMFR 060153Z 21003KT 10SM CLR 18/M02 A3028 RMK AO2 SLP255 T01831022

More Conditions Fewer Conditions

10-Day Weather Forecast

Almanac

Astronomie

Mar. 05, 2015 Lever Coucher
Temps réel
Crépuscule civil
Crépuscule nautique
Crépuscule astronomique
Lune
Durée de lumière visible
Longueur du jour
Tomorrow will be .
, % of the Moon is Illuminated

Extrêmes aujourd'hui

State Highs State Lows

Community

WunderPhotos

Upload Photos

1,803,113 Photos téléchargées !

WunderBlogs® & News

Nearby

Qualité de l'air

  Qualité de l'air Indice de la qualité de l'air Polluant
Not available.

Épaisseur de neige

Station Depth Altitude

Activité sismique

Ville Distance Mag. Time & Date
Minimum magnitude displayed is 2.5.

Températures des eaux côtières

Lieu Température

Stations météo à proximité